Terminal Aerodrome Forecast
Issued by NWS Green Bay, WI

Home | Current Version | Previous Version | Text Only | Print | Product List | Glossary Off
Versions: 1 2 3 4 5 6 7 8 9 10 11 12 13 14 15 16 17 18 19 20 21 22 23 24 25 26 27 28 29 30 31 32 33 34 35 36 37 38 39

000
FTUS43 KGRB 311100
TAFGRB
TAF
KGRB 311132Z 3112/0112 VRB03KT P6SM OVC012
      TEMPO 3112/3114 5SM BR SCT010 OVC025
     FM311500 15005KT P6SM BKN015 BKN025
     FM311700 17007KT P6SM SCT025 SCT250
     FM010300 16004KT P6SM FEW030 BKN140
     FM010900 16005KT 5SM BR SCT030 BKN090=

USA.gov is the U.S. government's official web portal to all federal, state and local government web resources and services.